createdAt,value
2019-04-14T00:02:36.797Z,90.80
2019-04-14T00:05:08.560Z,90.80
2019-04-14T00:07:38.485Z,90.90
2019-04-14T00:10:09.799Z,90.80
2019-04-14T00:12:39.103Z,90.80
2019-04-14T00:15:21.160Z,90.70
2019-04-14T00:17:41.299Z,90.90
2019-04-14T00:20:11.870Z,90.90
2019-04-14T00:22:42.440Z,90.90
2019-04-14T00:25:12.999Z,91.00
2019-04-14T00:27:43.208Z,91.10
2019-04-14T00:30:14.433Z,91.10
2019-04-14T00:32:48.788Z,91.00
2019-04-14T00:35:30.479Z,90.90
2019-04-14T00:38:21.847Z,90.90
2019-04-14T00:41:16.426Z,90.80
2019-04-14T00:44:21.033Z,90.80
2019-04-14T00:46:54.102Z,90.70
2019-04-14T00:49:24.625Z,90.80
2019-04-14T00:51:54.982Z,91.10
2019-04-14T00:54:24.431Z,90.90
2019-04-14T00:56:54.198Z,90.90
2019-04-14T00:59:24.715Z,90.90
2019-04-14T01:01:54.796Z,90.90
2019-04-14T01:04:25.119Z,90.80
2019-04-14T01:06:55.503Z,90.90
2019-04-14T01:09:26.090Z,90.80
2019-04-14T01:11:55.953Z,90.70
2019-04-14T01:14:25.568Z,90.50
2019-04-14T01:16:55.854Z,90.50
2019-04-14T01:19:25.158Z,90.60
2019-04-14T01:21:55.320Z,90.80
2019-04-14T01:24:24.980Z,91.00
2019-04-14T01:26:55.042Z,91.00
2019-04-14T01:29:25.504Z,91.10
2019-04-14T01:31:55.801Z,91.10
2019-04-14T01:34:26.027Z,91.20
2019-04-14T01:36:56.120Z,91.10
2019-04-14T01:39:26.529Z,91.10
2019-04-14T01:41:56.430Z,91.20
2019-04-14T01:44:26.483Z,91.10
2019-04-14T01:46:56.599Z,91.00
2019-04-14T01:49:26.862Z,91.00
2019-04-14T01:52:27.465Z,90.90
2019-04-14T01:55:15.384Z,90.80
2019-04-14T01:57:55.255Z,90.60
2019-04-14T02:00:55.461Z,90.50
2019-04-14T02:03:25.962Z,90.40
2019-04-14T02:05:56.093Z,90.20
2019-04-14T02:08:26.264Z,90.10
2019-04-14T02:10:56.579Z,90.00
2019-04-14T02:13:26.807Z,90.00
2019-04-14T02:15:57.296Z,89.90
2019-04-14T02:18:27.272Z,89.80
2019-04-14T02:20:57.803Z,89.90
2019-04-14T02:23:27.968Z,90.00
2019-04-14T02:25:57.953Z,90.10
2019-04-14T02:28:28.783Z,90.30
2019-04-14T02:31:10.517Z,90.50
2019-04-14T02:33:54.051Z,90.50
2019-04-14T02:39:15.569Z,90.70
2019-04-14T02:41:43.561Z,90.90
2019-04-14T02:44:04.988Z,91.10
2019-04-14T02:46:40.050Z,91.20
2019-04-14T02:49:08.254Z,91.20
2019-04-14T02:54:08.695Z,91.20
2019-04-14T02:56:38.943Z,91.10
2019-04-14T03:01:38.798Z,90.80
2019-04-14T03:04:09.123Z,90.70
2019-04-14T03:06:41.430Z,90.70
2019-04-14T03:14:15.608Z,90.60
2019-04-14T03:17:14.334Z,90.60
2019-04-14T03:20:05.358Z,90.50
2019-04-14T03:22:43.985Z,90.30
2019-04-14T03:25:15.223Z,90.10
2019-04-14T03:28:06.978Z,90.00
2019-04-14T03:30:57.672Z,89.90
2019-04-14T03:43:09.911Z,89.90
2019-04-14T03:45:43.343Z,89.70
2019-04-14T03:48:45.036Z,89.90
2019-04-14T03:50:50.214Z,90.10
2019-04-14T03:53:17.514Z,90.10
2019-04-14T03:55:58.845Z,90.20
2019-04-14T03:58:24.654Z,90.40
2019-04-14T04:00:55.391Z,90.40
2019-04-14T04:03:25.960Z,90.50
2019-04-14T04:05:56.423Z,90.50
2019-04-14T04:08:26.705Z,90.50
2019-04-14T04:10:57.611Z,90.40
2019-04-14T04:13:28.081Z,90.40
2019-04-14T04:16:13.677Z,90.30
2019-04-14T04:18:50.936Z,90.20
2019-04-14T04:21:22.723Z,90.10
2019-04-14T04:24:02.257Z,90.00
2019-04-14T04:26:40.707Z,89.90
2019-04-14T04:29:16.468Z,89.90
2019-04-14T04:32:23.073Z,89.80
2019-04-14T04:35:06.963Z,89.70
2019-04-14T04:37:45.556Z,89.60
2019-04-14T04:40:24.705Z,89.10
2019-04-14T04:42:54.826Z,88.90
2019-04-14T04:45:24.202Z,88.70
2019-04-14T04:47:53.552Z,88.10
2019-04-14T04:50:23.883Z,88.10
2019-04-14T04:52:54.000Z,88.20
2019-04-14T04:55:24.179Z,89.00
2019-04-14T04:57:54.537Z,89.00
2019-04-14T05:00:24.451Z,89.00
2019-04-14T05:02:54.732Z,89.20
2019-04-14T05:06:00.438Z,89.70
2019-04-14T05:08:30.471Z,90.20
2019-04-14T05:11:10.264Z,90.60
2019-04-14T05:13:42.359Z,90.70
2019-04-14T05:16:12.794Z,91.00
2019-04-14T05:18:42.362Z,91.40
2019-04-14T05:21:12.689Z,91.70
2019-04-14T05:23:43.067Z,91.70
2019-04-14T05:26:13.444Z,91.80
2019-04-14T05:28:43.853Z,92.00
2019-04-14T05:31:14.310Z,92.00
2019-04-14T05:33:44.662Z,92.00
2019-04-14T05:36:15.038Z,91.80
2019-04-14T05:38:45.021Z,91.50
2019-04-14T05:41:15.847Z,91.30
2019-04-14T05:43:50.209Z,91.30
2019-04-14T05:46:16.409Z,91.50
2019-04-14T05:48:47.144Z,91.40
2019-04-14T05:51:19.894Z,91.50
2019-04-14T05:53:48.588Z,91.40
2019-04-14T05:56:18.624Z,91.80
2019-04-14T05:58:49.243Z,91.50
2019-04-14T06:01:18.639Z,91.50
2019-04-14T06:03:48.160Z,91.70
2019-04-14T06:06:17.425Z,91.60
2019-04-14T06:08:46.983Z,91.80
2019-04-14T06:11:16.344Z,91.80
2019-04-14T06:13:45.632Z,91.90
2019-04-14T06:16:14.900Z,91.90
2019-04-14T06:18:44.333Z,91.80
2019-04-14T06:21:13.855Z,91.60
2019-04-14T06:23:43.392Z,91.70
2019-04-14T06:26:12.688Z,91.40
2019-04-14T06:28:42.678Z,91.00
2019-04-14T06:31:24.427Z,90.40
2019-04-14T06:34:01.407Z,90.10
2019-04-14T06:36:51.594Z,89.80
2019-04-14T06:39:24.415Z,90.10
2019-04-14T06:41:53.691Z,90.10
2019-04-14T06:44:23.289Z,89.70
2019-04-14T06:46:52.579Z,89.40
2019-04-14T06:49:21.843Z,88.60
2019-04-14T06:51:51.365Z,87.00
2019-04-14T06:54:20.645Z,87.00
2019-04-14T06:56:49.980Z,86.30
2019-04-14T06:59:19.613Z,86.10
2019-04-14T07:01:48.896Z,85.60
2019-04-14T07:04:18.271Z,85.30
2019-04-14T07:06:47.688Z,85.00
2019-04-14T07:09:16.992Z,84.20
2019-04-14T07:11:47.047Z,83.30
2019-04-14T07:14:16.394Z,82.50
2019-04-14T07:16:46.032Z,82.50
2019-04-14T07:19:15.599Z,79.30
2019-04-14T07:21:45.229Z,79.80
2019-04-14T07:24:14.498Z,78.70
2019-04-14T07:26:43.767Z,78.00
2019-04-14T07:29:14.719Z,77.40
2019-04-14T07:32:09.210Z,76.10
2019-04-14T07:34:47.627Z,75.60
2019-04-14T07:37:26.705Z,76.30
2019-04-14T07:40:07.443Z,75.00
2019-04-14T07:42:55.688Z,73.80
2019-04-14T07:45:42.438Z,72.10
2019-04-14T07:48:30.735Z,71.90
2019-04-14T07:51:21.695Z,72.30
2019-04-14T07:53:54.315Z,71.90
2019-04-14T07:56:38.093Z,71.20
2019-04-14T07:59:29.461Z,70.90
2019-04-14T08:02:07.913Z,70.00
2019-04-14T08:04:41.472Z,69.60
2019-04-14T08:07:10.784Z,67.90
2019-04-14T08:09:40.051Z,68.70
2019-04-14T08:12:09.652Z,68.50
2019-04-14T08:14:39.265Z,68.60
2019-04-14T08:17:09.010Z,66.80
2019-04-14T08:19:38.624Z,65.30
2019-04-14T08:22:07.963Z,64.00
2019-04-14T08:24:37.531Z,63.60
2019-04-14T08:27:06.875Z,62.60
2019-04-14T08:29:36.208Z,62.20
2019-04-14T08:32:05.654Z,62.40
2019-04-14T08:34:36.793Z,62.00
2019-04-14T08:37:06.067Z,61.80
2019-04-14T08:39:38.067Z,62.70
2019-04-14T08:42:16.100Z,61.80
2019-04-14T08:44:47.262Z,61.70
2019-04-14T08:47:35.793Z,60.20
2019-04-14T08:50:39.381Z,59.60
2019-04-14T08:53:19.741Z,59.40
2019-04-14T08:56:07.959Z,57.70
2019-04-14T08:58:59.688Z,57.80
2019-04-14T09:01:37.252Z,54.90
2019-04-14T09:04:20.656Z,56.90
2019-04-14T09:07:18.192Z,56.90
2019-04-14T09:09:51.877Z,56.70
2019-04-14T09:12:24.671Z,56.90
2019-04-14T09:14:57.267Z,57.40
2019-04-14T09:17:26.324Z,56.80
2019-04-14T09:19:56.055Z,57.70
2019-04-14T09:22:25.619Z,56.80
2019-04-14T09:24:54.894Z,57.20
2019-04-14T09:27:24.200Z,56.70
2019-04-14T09:29:53.667Z,56.80
2019-04-14T09:32:23.400Z,56.70
2019-04-14T09:34:52.979Z,55.00
2019-04-14T09:37:22.226Z,55.20
2019-04-14T09:39:51.574Z,54.80
2019-04-14T09:42:21.176Z,53.90
2019-04-14T09:44:50.504Z,54.60
2019-04-14T09:47:20.418Z,54.10
2019-04-14T09:49:49.674Z,52.10
2019-04-14T09:52:19.064Z,52.40
2019-04-14T09:54:48.356Z,51.80
2019-04-14T09:57:17.932Z,52.10
2019-04-14T09:59:47.202Z,51.70
2019-04-14T10:02:16.456Z,51.70
2019-04-14T10:04:46.076Z,51.30
2019-04-14T10:07:15.345Z,51.90
2019-04-14T10:09:44.715Z,51.30
2019-04-14T10:12:14.065Z,50.10
2019-04-14T10:14:43.677Z,50.70
2019-04-14T10:17:12.931Z,49.80
2019-04-14T10:19:42.524Z,49.70
2019-04-14T10:22:11.843Z,50.30
2019-04-14T10:24:41.420Z,50.70
2019-04-14T10:27:10.987Z,51.00
2019-04-14T10:29:40.292Z,50.80
2019-04-14T10:32:09.583Z,50.50
2019-04-14T10:34:38.872Z,50.30
2019-04-14T10:37:08.235Z,48.80
2019-04-14T10:39:37.891Z,47.10
2019-04-14T10:42:07.652Z,47.50
2019-04-14T10:44:37.487Z,44.40
2019-04-14T10:47:06.764Z,44.90
2019-04-14T10:49:36.346Z,42.30
2019-04-14T10:52:05.606Z,42.10
2019-04-14T10:54:34.923Z,41.90
2019-04-14T10:57:04.267Z,41.70
2019-04-14T10:59:33.572Z,38.00
2019-04-14T11:02:02.837Z,37.10
2019-04-14T11:04:32.132Z,37.40
2019-04-14T11:07:07.130Z,36.40
2019-04-14T11:09:38.471Z,35.60
2019-04-14T11:12:08.095Z,35.80
2019-04-14T11:14:42.093Z,36.60
2019-04-14T11:17:11.607Z,36.20
2019-04-14T11:19:40.901Z,35.80
2019-04-14T11:22:10.806Z,35.50
2019-04-14T11:24:40.364Z,36.30
2019-04-14T11:27:09.653Z,36.40
2019-04-14T11:29:39.173Z,38.50
2019-04-14T11:32:34.403Z,39.50
2019-04-14T11:35:21.303Z,40.00
2019-04-14T11:38:15.763Z,41.10
2019-04-14T11:40:48.068Z,41.80
2019-04-14T11:43:17.633Z,42.40
2019-04-14T11:45:47.032Z,42.50
2019-04-14T11:48:16.631Z,41.50
2019-04-14T11:50:45.979Z,42.00
2019-04-14T11:53:15.277Z,41.20
2019-04-14T11:55:44.633Z,40.90
2019-04-14T11:58:14.197Z,40.70
2019-04-14T12:01:05.530Z,41.70
2019-04-14T12:03:54.240Z,39.60
2019-04-14T12:06:48.551Z,39.60
2019-04-14T12:09:21.091Z,39.00
2019-04-14T12:11:50.910Z,39.40
2019-04-14T12:14:23.451Z,38.30
2019-04-14T12:16:52.786Z,37.80
2019-04-14T12:19:22.644Z,37.90
2019-04-14T12:21:52.040Z,38.10
2019-04-14T12:24:21.586Z,37.70
2019-04-14T12:26:50.899Z,37.90
2019-04-14T12:29:21.433Z,39.00
2019-04-14T12:31:51.047Z,38.00
2019-04-14T12:34:21.001Z,37.20
2019-04-14T12:36:50.581Z,37.20
2019-04-14T12:39:23.242Z,38.90
2019-04-14T12:42:06.037Z,37.90
2019-04-14T12:45:04.004Z,38.30
2019-04-14T12:47:50.823Z,37.00
2019-04-14T12:50:26.727Z,37.20
2019-04-14T12:52:56.586Z,38.00
2019-04-14T12:55:25.994Z,38.00
2019-04-14T12:57:58.250Z,37.80
2019-04-14T13:00:34.326Z,38.40
2019-04-14T13:03:03.849Z,40.00
2019-04-14T13:05:33.144Z,40.30
2019-04-14T13:08:02.735Z,41.30
2019-04-14T13:10:32.095Z,40.10
2019-04-14T13:13:01.352Z,40.30
2019-04-14T13:15:30.662Z,40.20
2019-04-14T13:18:00.007Z,40.50
2019-04-14T13:20:29.543Z,40.50
2019-04-14T13:22:58.817Z,40.40
2019-04-14T13:25:28.397Z,39.60
2019-04-14T13:27:57.654Z,39.40
2019-04-14T13:30:30.430Z,38.50
2019-04-14T13:32:59.823Z,38.50
2019-04-14T13:35:29.395Z,38.50
2019-04-14T13:37:59.433Z,38.70
2019-04-14T13:40:28.976Z,39.20
2019-04-14T13:42:58.402Z,39.00
2019-04-14T13:45:27.655Z,38.70
2019-04-14T13:47:56.984Z,39.00
2019-04-14T13:50:26.264Z,39.70
2019-04-14T13:52:55.827Z,40.50
2019-04-14T13:55:25.135Z,39.70
2019-04-14T13:57:54.797Z,40.30
2019-04-14T14:00:24.636Z,40.10
2019-04-14T14:02:54.206Z,40.20
2019-04-14T14:05:23.998Z,38.50
2019-04-14T14:07:53.556Z,40.00
2019-04-14T14:10:22.839Z,40.60
2019-04-14T14:13:04.719Z,40.60
2019-04-14T14:15:59.399Z,40.30
2019-04-14T14:18:40.160Z,39.90
2019-04-14T14:21:47.143Z,40.50
2019-04-14T14:24:50.672Z,40.80
2019-04-14T14:27:19.954Z,39.70
2019-04-14T14:29:49.237Z,40.40
2019-04-14T14:32:33.512Z,41.10
2019-04-14T14:35:03.071Z,40.60
2019-04-14T14:37:32.704Z,40.40
2019-04-14T14:40:01.980Z,40.00
2019-04-14T14:42:31.808Z,39.70
2019-04-14T14:45:20.048Z,39.20
2019-04-14T14:48:01.858Z,39.20
2019-04-14T14:50:41.928Z,39.20
2019-04-14T14:53:12.286Z,40.20
2019-04-14T14:55:42.223Z,39.60
2019-04-14T14:58:11.531Z,39.80
2019-04-14T15:00:41.276Z,40.00
2019-04-14T15:03:10.893Z,40.00
2019-04-14T15:05:40.611Z,39.60
2019-04-14T15:08:10.367Z,39.90
2019-04-14T15:10:39.928Z,39.10
2019-04-14T15:13:09.312Z,38.70
2019-04-14T15:15:38.623Z,39.00
2019-04-14T15:18:08.207Z,39.00
2019-04-14T15:20:38.216Z,39.30
2019-04-14T15:23:08.067Z,38.90
2019-04-14T15:25:37.347Z,38.40
2019-04-14T15:28:06.939Z,38.60
2019-04-14T15:30:36.466Z,39.50
2019-04-14T15:33:05.822Z,39.90
2019-04-14T15:35:35.231Z,40.20
2019-04-14T15:38:04.852Z,40.90
2019-04-14T15:40:34.215Z,41.00
2019-04-14T15:43:03.852Z,40.40
2019-04-14T15:45:33.124Z,40.50
2019-04-14T15:48:02.693Z,39.10
2019-04-14T15:50:32.276Z,37.60
2019-04-14T15:53:01.802Z,38.10
2019-04-14T15:55:31.339Z,38.90
2019-04-14T15:58:19.592Z,39.30
2019-04-14T16:01:17.370Z,39.90
2019-04-14T16:04:05.699Z,39.50
2019-04-14T16:07:06.371Z,39.70
2019-04-14T16:10:06.847Z,40.40
2019-04-14T16:12:55.623Z,41.60
2019-04-14T16:15:31.102Z,42.30
2019-04-14T16:18:28.959Z,42.30
2019-04-14T16:20:58.249Z,41.00
2019-04-14T16:23:27.831Z,41.40
2019-04-14T16:26:06.197Z,42.00
2019-04-14T16:28:54.459Z,42.90
2019-04-14T16:32:04.567Z,43.60
2019-04-14T16:34:52.870Z,43.50
2019-04-14T16:37:22.617Z,43.70
2019-04-14T16:39:52.191Z,43.30
2019-04-14T16:42:21.525Z,43.10
2019-04-14T16:44:53.725Z,43.60
2019-04-14T16:47:23.316Z,43.10
2019-04-14T16:49:55.617Z,43.40
2019-04-14T16:52:44.400Z,43.30
2019-04-14T16:55:44.756Z,43.40
2019-04-14T16:58:19.401Z,44.50
2019-04-14T17:01:04.352Z,44.60
2019-04-14T17:03:33.720Z,45.60
2019-04-14T17:06:03.169Z,46.40
2019-04-14T17:08:32.820Z,45.50
2019-04-14T17:11:02.478Z,45.10
2019-04-14T17:13:34.662Z,44.40
2019-04-14T17:16:38.413Z,44.80
2019-04-14T17:19:21.864Z,45.20
2019-04-14T17:22:00.084Z,45.50
2019-04-14T17:24:48.295Z,46.20
2019-04-14T17:27:45.565Z,46.50
2019-04-14T17:30:33.012Z,47.20
2019-04-14T17:33:21.255Z,47.90
2019-04-14T17:36:18.550Z,48.90
2019-04-14T17:39:10.285Z,49.30
2019-04-14T17:41:47.855Z,49.30
2019-04-14T17:44:31.984Z,48.50
2019-04-14T17:47:13.235Z,47.80
2019-04-14T17:50:00.808Z,48.00
2019-04-14T17:52:45.378Z,48.20
2019-04-14T17:55:20.533Z,48.50
2019-04-14T17:57:54.644Z,49.40
2019-04-14T18:00:40.914Z,49.80
2019-04-14T18:03:21.692Z,51.40
2019-04-14T18:05:54.178Z,52.10
2019-04-14T18:08:33.715Z,53.40
2019-04-14T18:11:08.717Z,53.70
2019-04-14T18:13:57.001Z,54.20
2019-04-14T18:16:33.806Z,54.80
2019-04-14T18:19:16.410Z,55.60
2019-04-14T18:21:45.724Z,56.10
2019-04-14T18:24:15.285Z,56.50
2019-04-14T18:26:44.816Z,56.60
2019-04-14T18:29:30.876Z,56.90
2019-04-14T18:32:26.109Z,57.30
2019-04-14T18:35:04.261Z,57.80
2019-04-14T18:37:52.500Z,58.00
2019-04-14T18:40:26.220Z,58.20
2019-04-14T18:43:26.281Z,58.00
2019-04-14T18:46:03.271Z,58.20
2019-04-14T18:48:36.951Z,58.30
2019-04-14T18:51:17.314Z,58.60
2019-04-14T18:54:17.817Z,58.80
2019-04-14T18:57:04.915Z,58.90
2019-04-14T19:00:11.452Z,59.20
2019-04-14T19:02:40.794Z,59.50
2019-04-14T19:05:10.724Z,59.70
2019-04-14T19:07:40.291Z,60.10
2019-04-14T19:10:09.762Z,60.10
2019-04-14T19:13:04.052Z,60.40
2019-04-14T19:15:58.380Z,60.70
2019-04-14T19:18:30.800Z,60.70
2019-04-14T19:21:06.638Z,61.10
2019-04-14T19:23:35.919Z,61.20
2019-04-14T19:26:05.560Z,61.40
2019-04-14T19:28:35.078Z,61.60
2019-04-14T19:31:04.640Z,61.80
2019-04-14T19:33:33.988Z,61.50
2019-04-14T19:36:03.391Z,61.90
2019-04-14T19:38:32.954Z,61.80
2019-04-14T19:41:02.475Z,61.90
2019-04-14T19:43:31.787Z,61.70
2019-04-14T19:46:01.403Z,61.70
2019-04-14T19:48:30.924Z,61.50
2019-04-14T19:51:00.572Z,61.30
2019-04-14T19:53:30.201Z,61.50
2019-04-14T19:55:59.478Z,61.70
2019-04-14T19:58:29.234Z,61.70
2019-04-14T20:00:59.071Z,61.90
2019-04-14T20:03:28.628Z,62.10
2019-04-14T20:05:57.922Z,62.20
2019-04-14T20:08:27.476Z,62.60
2019-04-14T20:10:57.175Z,62.80
2019-04-14T20:13:28.267Z,62.90
2019-04-14T20:16:23.059Z,63.00
2019-04-14T20:19:23.607Z,63.10
2019-04-14T20:22:17.687Z,63.40
2019-04-14T20:24:51.449Z,63.60
2019-04-14T20:27:45.845Z,63.80
2019-04-14T20:30:22.899Z,64.00
2019-04-14T20:32:52.171Z,64.40
2019-04-14T20:35:21.612Z,65.10
2019-04-14T20:37:51.718Z,64.70
2019-04-14T20:40:21.263Z,64.70
2019-04-14T20:42:50.550Z,64.90
2019-04-14T20:45:20.082Z,65.20
2019-04-14T20:47:49.640Z,65.40
2019-04-14T20:50:19.175Z,65.70
2019-04-14T20:52:48.528Z,65.70
2019-04-14T20:55:18.139Z,66.00
2019-04-14T20:57:47.758Z,66.10
2019-04-14T21:00:20.806Z,66.50
2019-04-14T21:03:09.656Z,66.70
2019-04-14T21:05:56.899Z,66.80
2019-04-14T21:08:44.582Z,67.10
2019-04-14T21:11:20.778Z,67.30
2019-04-14T21:14:04.756Z,67.40
2019-04-14T21:16:47.384Z,67.40
2019-04-14T21:19:23.602Z,67.50
2019-04-14T21:22:14.903Z,67.70
2019-04-14T21:24:48.598Z,67.70
2019-04-14T21:27:23.654Z,67.90
2019-04-14T21:30:11.894Z,67.90
2019-04-14T21:32:46.667Z,68.20
2019-04-14T21:35:41.563Z,68.20
2019-04-14T21:38:27.871Z,68.30
2019-04-14T21:41:04.807Z,68.60
2019-04-14T21:43:34.371Z,68.60
2019-04-14T21:46:03.696Z,68.80
2019-04-14T21:48:33.281Z,69.00
2019-04-14T21:51:02.567Z,69.20
2019-04-14T21:53:31.827Z,69.40
2019-04-14T21:56:12.867Z,69.50
2019-04-14T21:58:42.760Z,69.70
2019-04-14T22:01:54.703Z,69.90
2019-04-14T22:04:43.138Z,70.00
2019-04-14T22:07:32.278Z,70.30
2019-04-14T22:10:10.547Z,70.60
2019-04-14T22:12:42.457Z,70.70
2019-04-14T22:15:14.591Z,71.00
2019-04-14T22:17:46.776Z,71.10
2019-04-14T22:20:16.263Z,71.40
2019-04-14T22:22:45.536Z,71.70
2019-04-14T22:25:15.197Z,72.20
2019-04-14T22:27:44.479Z,72.30
2019-04-14T22:30:17.022Z,72.20
2019-04-14T22:32:49.370Z,72.20
2019-04-14T22:35:18.760Z,72.40
2019-04-14T22:37:48.048Z,72.30
2019-04-14T22:40:17.361Z,72.40
2019-04-14T22:42:46.998Z,72.30
2019-04-14T22:45:16.303Z,72.00
2019-04-14T22:47:46.505Z,72.10
2019-04-14T22:50:23.369Z,71.80
2019-04-14T22:52:53.036Z,71.70
2019-04-14T22:55:22.373Z,71.40
2019-04-14T22:57:51.695Z,71.20
2019-04-14T23:00:40.276Z,71.10
2019-04-14T23:03:38.127Z,70.80
2019-04-14T23:06:29.923Z,70.70
2019-04-14T23:09:17.082Z,70.70
2019-04-14T23:11:53.589Z,70.80
2019-04-14T23:14:35.303Z,70.90
2019-04-14T23:17:24.276Z,71.10
2019-04-14T23:20:23.076Z,71.20
2019-04-14T23:23:09.978Z,71.90
2019-04-14T23:25:39.484Z,72.80
2019-04-14T23:28:11.848Z,73.00
2019-04-14T23:30:41.220Z,72.90
2019-04-14T23:33:13.679Z,73.00
2019-04-14T23:35:43.177Z,72.90
2019-04-14T23:38:12.987Z,73.00
2019-04-14T23:40:42.573Z,72.80
2019-04-14T23:43:12.311Z,72.50
2019-04-14T23:45:41.602Z,72.40
2019-04-14T23:48:11.472Z,72.40
2019-04-14T23:50:40.882Z,72.50
2019-04-14T23:53:10.644Z,72.80
2019-04-14T23:55:40.304Z,72.40
2019-04-14T23:58:36.696Z,72.50
